sensor_id;sensor_type;location;lat;lon;timestamp;P1;durP1;ratioP1;P2;durP2;ratioP2
20095;SDS011;10207;50.942;6.900;2023-04-23T00:00:16;18.63;;;12.70;;
20095;SDS011;10207;50.942;6.900;2023-04-23T00:02:43;17.15;;;12.30;;
20095;SDS011;10207;50.942;6.900;2023-04-23T00:05:11;20.13;;;13.48;;
20095;SDS011;10207;50.942;6.900;2023-04-23T00:07:37;21.95;;;13.18;;
20095;SDS011;10207;50.942;6.900;2023-04-23T00:10:04;17.70;;;13.10;;
20095;SDS011;10207;50.942;6.900;2023-04-23T00:12:30;19.90;;;13.20;;
20095;SDS011;10207;50.942;6.900;2023-04-23T00:14:57;19.50;;;13.40;;
20095;SDS011;10207;50.942;6.900;2023-04-23T00:17:23;18.65;;;13.50;;
20095;SDS011;10207;50.942;6.900;2023-04-23T00:19:49;18.40;;;13.60;;
20095;SDS011;10207;50.942;6.900;2023-04-23T00:22:16;19.85;;;13.82;;
20095;SDS011;10207;50.942;6.900;2023-04-23T00:24:42;18.75;;;13.52;;
20095;SDS011;10207;50.942;6.900;2023-04-23T00:27:08;19.55;;;13.55;;
20095;SDS011;10207;50.942;6.900;2023-04-23T00:29:34;18.33;;;13.38;;
20095;SDS011;10207;50.942;6.900;2023-04-23T00:32:00;18.45;;;13.00;;
20095;SDS011;10207;50.942;6.900;2023-04-23T00:34:28;18.83;;;14.52;;
20095;SDS011;10207;50.942;6.900;2023-04-23T00:36:54;18.52;;;13.70;;
20095;SDS011;10207;50.942;6.900;2023-04-23T00:39:20;22.42;;;14.57;;
20095;SDS011;10207;50.942;6.900;2023-04-23T00:41:46;19.65;;;13.68;;
20095;SDS011;10207;50.942;6.900;2023-04-23T00:44:13;22.38;;;14.93;;
20095;SDS011;10207;50.942;6.900;2023-04-23T00:46:39;21.75;;;15.38;;
20095;SDS011;10207;50.942;6.900;2023-04-23T00:49:05;24.35;;;15.38;;
20095;SDS011;10207;50.942;6.900;2023-04-23T00:51:31;25.98;;;16.98;;
20095;SDS011;10207;50.942;6.900;2023-04-23T00:53:57;22.13;;;15.30;;
20095;SDS011;10207;50.942;6.900;2023-04-23T00:56:23;26.00;;;16.60;;
20095;SDS011;10207;50.942;6.900;2023-04-23T00:58:50;22.20;;;15.88;;
20095;SDS011;10207;50.942;6.900;2023-04-23T01:01:17;23.02;;;16.00;;
20095;SDS011;10207;50.942;6.900;2023-04-23T01:03:45;25.77;;;16.30;;
20095;SDS011;10207;50.942;6.900;2023-04-23T01:06:12;26.15;;;17.50;;
20095;SDS011;10207;50.942;6.900;2023-04-23T01:08:38;22.83;;;15.90;;
20095;SDS011;10207;50.942;6.900;2023-04-23T01:11:05;23.67;;;15.43;;
20095;SDS011;10207;50.942;6.900;2023-04-23T01:13:31;20.33;;;14.13;;
20095;SDS011;10207;50.942;6.900;2023-04-23T01:15:57;23.67;;;16.08;;
20095;SDS011;10207;50.942;6.900;2023-04-23T01:18:23;25.00;;;15.68;;
20095;SDS011;10207;50.942;6.900;2023-04-23T01:20:49;24.35;;;15.60;;
20095;SDS011;10207;50.942;6.900;2023-04-23T01:23:15;23.00;;;14.82;;
20095;SDS011;10207;50.942;6.900;2023-04-23T01:25:42;22.80;;;15.13;;
20095;SDS011;10207;50.942;6.900;2023-04-23T01:28:08;22.42;;;15.32;;
20095;SDS011;10207;50.942;6.900;2023-04-23T01:30:34;20.33;;;14.07;;
20095;SDS011;10207;50.942;6.900;2023-04-23T01:33:00;21.23;;;14.48;;
20095;SDS011;10207;50.942;6.900;2023-04-23T01:35:26;21.40;;;14.48;;
20095;SDS011;10207;50.942;6.900;2023-04-23T01:37:53;22.17;;;15.75;;
20095;SDS011;10207;50.942;6.900;2023-04-23T01:40:20;22.13;;;15.48;;
20095;SDS011;10207;50.942;6.900;2023-04-23T01:42:46;22.23;;;15.38;;
20095;SDS011;10207;50.942;6.900;2023-04-23T01:45:12;22.27;;;14.85;;
20095;SDS011;10207;50.942;6.900;2023-04-23T01:47:39;20.58;;;14.55;;
20095;SDS011;10207;50.942;6.900;2023-04-23T01:50:05;25.40;;;15.68;;
20095;SDS011;10207;50.942;6.900;2023-04-23T01:52:31;20.88;;;15.48;;
20095;SDS011;10207;50.942;6.900;2023-04-23T01:54:57;28.90;;;15.90;;
20095;SDS011;10207;50.942;6.900;2023-04-23T01:57:23;20.40;;;13.90;;
20095;SDS011;10207;50.942;6.900;2023-04-23T01:59:56;24.60;;;16.92;;
20095;SDS011;10207;50.942;6.900;2023-04-23T02:02:24;25.13;;;16.70;;
20095;SDS011;10207;50.942;6.900;2023-04-23T02:04:50;25.23;;;16.88;;
20095;SDS011;10207;50.942;6.900;2023-04-23T02:07:17;27.80;;;17.00;;
20095;SDS011;10207;50.942;6.900;2023-04-23T02:09:43;28.85;;;18.15;;
20095;SDS011;10207;50.942;6.900;2023-04-23T02:12:09;26.27;;;17.10;;
20095;SDS011;10207;50.942;6.900;2023-04-23T02:14:35;26.15;;;18.17;;
20095;SDS011;10207;50.942;6.900;2023-04-23T02:17:01;29.98;;;18.65;;
20095;SDS011;10207;50.942;6.900;2023-04-23T02:19:28;27.48;;;18.08;;
20095;SDS011;10207;50.942;6.900;2023-04-23T02:21:56;28.48;;;19.38;;
20095;SDS011;10207;50.942;6.900;2023-04-23T02:24:22;31.23;;;19.88;;
20095;SDS011;10207;50.942;6.900;2023-04-23T02:26:48;35.65;;;20.92;;
20095;SDS011;10207;50.942;6.900;2023-04-23T02:29:14;29.23;;;19.98;;
20095;SDS011;10207;50.942;6.900;2023-04-23T02:31:40;30.55;;;20.95;;
20095;SDS011;10207;50.942;6.900;2023-04-23T02:34:06;33.05;;;20.42;;
20095;SDS011;10207;50.942;6.900;2023-04-23T02:36:32;34.85;;;21.88;;
20095;SDS011;10207;50.942;6.900;2023-04-23T02:38:58;40.78;;;23.92;;
20095;SDS011;10207;50.942;6.900;2023-04-23T02:41:24;37.70;;;24.33;;
20095;SDS011;10207;50.942;6.900;2023-04-23T02:43:50;36.63;;;24.70;;
20095;SDS011;10207;50.942;6.900;2023-04-23T02:46:16;39.85;;;24.88;;
20095;SDS011;10207;50.942;6.900;2023-04-23T02:48:42;36.70;;;23.25;;
20095;SDS011;10207;50.942;6.900;2023-04-23T02:51:09;37.63;;;23.15;;
20095;SDS011;10207;50.942;6.900;2023-04-23T02:53:35;36.38;;;24.48;;
20095;SDS011;10207;50.942;6.900;2023-04-23T02:56:01;40.25;;;25.05;;
20095;SDS011;10207;50.942;6.900;2023-04-23T02:58:29;39.08;;;24.75;;
20095;SDS011;10207;50.942;6.900;2023-04-23T03:00:58;38.53;;;24.13;;
20095;SDS011;10207;50.942;6.900;2023-04-23T03:03:25;39.67;;;25.40;;
20095;SDS011;10207;50.942;6.900;2023-04-23T03:05:52;41.97;;;25.80;;
20095;SDS011;10207;50.942;6.900;2023-04-23T03:08:18;39.88;;;24.77;;
20095;SDS011;10207;50.942;6.900;2023-04-23T03:10:44;42.40;;;25.20;;
20095;SDS011;10207;50.942;6.900;2023-04-23T03:13:10;41.22;;;26.40;;
20095;SDS011;10207;50.942;6.900;2023-04-23T03:15:36;41.17;;;24.98;;
20095;SDS011;10207;50.942;6.900;2023-04-23T03:18:02;41.67;;;23.45;;
20095;SDS011;10207;50.942;6.900;2023-04-23T03:20:30;38.22;;;25.33;;
20095;SDS011;10207;50.942;6.900;2023-04-23T03:22:56;40.17;;;25.20;;
20095;SDS011;10207;50.942;6.900;2023-04-23T03:25:22;39.97;;;24.00;;
20095;SDS011;10207;50.942;6.900;2023-04-23T03:27:51;40.53;;;25.30;;
20095;SDS011;10207;50.942;6.900;2023-04-23T03:30:17;37.95;;;23.35;;
20095;SDS011;10207;50.942;6.900;2023-04-23T03:32:43;40.22;;;26.38;;
20095;SDS011;10207;50.942;6.900;2023-04-23T03:35:11;42.10;;;24.10;;
20095;SDS011;10207;50.942;6.900;2023-04-23T03:37:40;39.33;;;23.45;;
20095;SDS011;10207;50.942;6.900;2023-04-23T03:40:07;44.05;;;25.25;;
20095;SDS011;10207;50.942;6.900;2023-04-23T03:42:36;42.58;;;25.60;;
20095;SDS011;10207;50.942;6.900;2023-04-23T03:45:03;47.30;;;25.73;;
20095;SDS011;10207;50.942;6.900;2023-04-23T03:47:29;40.47;;;25.23;;
20095;SDS011;10207;50.942;6.900;2023-04-23T03:49:55;43.67;;;26.35;;
20095;SDS011;10207;50.942;6.900;2023-04-23T03:52:21;41.00;;;24.38;;
20095;SDS011;10207;50.942;6.900;2023-04-23T03:54:47;39.95;;;24.85;;
20095;SDS011;10207;50.942;6.900;2023-04-23T03:57:17;40.97;;;26.38;;
20095;SDS011;10207;50.942;6.900;2023-04-23T04:00:11;42.47;;;24.67;;
20095;SDS011;10207;50.942;6.900;2023-04-23T04:02:42;41.15;;;23.15;;
20095;SDS011;10207;50.942;6.900;2023-04-23T04:05:08;37.60;;;22.25;;
20095;SDS011;10207;50.942;6.900;2023-04-23T04:07:35;33.53;;;21.85;;
20095;SDS011;10207;50.942;6.900;2023-04-23T04:10:02;38.15;;;24.58;;
20095;SDS011;10207;50.942;6.900;2023-04-23T04:12:29;37.53;;;24.33;;
20095;SDS011;10207;50.942;6.900;2023-04-23T04:14:55;38.65;;;22.98;;
20095;SDS011;10207;50.942;6.900;2023-04-23T04:17:21;39.25;;;22.90;;
20095;SDS011;10207;50.942;6.900;2023-04-23T04:19:47;36.38;;;22.63;;
20095;SDS011;10207;50.942;6.900;2023-04-23T04:22:13;37.42;;;24.65;;
20095;SDS011;10207;50.942;6.900;2023-04-23T04:24:39;35.70;;;22.83;;
20095;SDS011;10207;50.942;6.900;2023-04-23T04:27:06;30.02;;;20.00;;
20095;SDS011;10207;50.942;6.900;2023-04-23T04:29:33;34.63;;;22.55;;
20095;SDS011;10207;50.942;6.900;2023-04-23T04:31:59;35.58;;;21.23;;
20095;SDS011;10207;50.942;6.900;2023-04-23T04:34:27;35.13;;;22.55;;
20095;SDS011;10207;50.942;6.900;2023-04-23T04:36:53;30.23;;;19.90;;
20095;SDS011;10207;50.942;6.900;2023-04-23T04:39:19;31.88;;;20.30;;
20095;SDS011;10207;50.942;6.900;2023-04-23T04:41:45;29.00;;;19.50;;
20095;SDS011;10207;50.942;6.900;2023-04-23T04:44:12;33.00;;;21.17;;
20095;SDS011;10207;50.942;6.900;2023-04-23T04:46:39;32.60;;;20.85;;
20095;SDS011;10207;50.942;6.900;2023-04-23T04:49:10;30.20;;;20.85;;
20095;SDS011;10207;50.942;6.900;2023-04-23T04:51:36;28.65;;;18.60;;
20095;SDS011;10207;50.942;6.900;2023-04-23T04:54:03;28.77;;;20.75;;
20095;SDS011;10207;50.942;6.900;2023-04-23T04:56:29;30.30;;;19.13;;
20095;SDS011;10207;50.942;6.900;2023-04-23T04:58:54;28.30;;;18.45;;
20095;SDS011;10207;50.942;6.900;2023-04-23T05:01:20;29.58;;;19.33;;
20095;SDS011;10207;50.942;6.900;2023-04-23T05:03:47;26.13;;;18.35;;
20095;SDS011;10207;50.942;6.900;2023-04-23T05:06:13;29.70;;;18.90;;
20095;SDS011;10207;50.942;6.900;2023-04-23T05:08:39;26.17;;;18.20;;
20095;SDS011;10207;50.942;6.900;2023-04-23T05:11:06;25.23;;;17.25;;
20095;SDS011;10207;50.942;6.900;2023-04-23T05:13:32;23.48;;;16.00;;
20095;SDS011;10207;50.942;6.900;2023-04-23T05:15:58;21.95;;;15.82;;
20095;SDS011;10207;50.942;6.900;2023-04-23T05:18:24;24.35;;;15.90;;
20095;SDS011;10207;50.942;6.900;2023-04-23T05:20:50;22.05;;;15.80;;
20095;SDS011;10207;50.942;6.900;2023-04-23T05:23:16;19.83;;;14.85;;
20095;SDS011;10207;50.942;6.900;2023-04-23T05:25:43;20.58;;;13.60;;
20095;SDS011;10207;50.942;6.900;2023-04-23T05:28:09;19.33;;;13.80;;
20095;SDS011;10207;50.942;6.900;2023-04-23T05:30:35;20.08;;;13.63;;
20095;SDS011;10207;50.942;6.900;2023-04-23T05:33:01;19.65;;;13.07;;
20095;SDS011;10207;50.942;6.900;2023-04-23T05:35:26;19.38;;;14.25;;
20095;SDS011;10207;50.942;6.900;2023-04-23T05:37:52;17.08;;;11.95;;
20095;SDS011;10207;50.942;6.900;2023-04-23T05:40:18;16.15;;;12.82;;
20095;SDS011;10207;50.942;6.900;2023-04-23T05:42:44;15.82;;;11.45;;
20095;SDS011;10207;50.942;6.900;2023-04-23T05:45:10;16.48;;;10.85;;
20095;SDS011;10207;50.942;6.900;2023-04-23T05:47:36;16.60;;;12.18;;
20095;SDS011;10207;50.942;6.900;2023-04-23T05:50:02;17.90;;;11.60;;
20095;SDS011;10207;50.942;6.900;2023-04-23T05:52:30;13.77;;;9.23;;
20095;SDS011;10207;50.942;6.900;2023-04-23T05:54:58;14.65;;;10.98;;
20095;SDS011;10207;50.942;6.900;2023-04-23T05:57:24;14.60;;;11.07;;
20095;SDS011;10207;50.942;6.900;2023-04-23T05:59:49;12.00;;;9.02;;
20095;SDS011;10207;50.942;6.900;2023-04-23T06:02:15;13.23;;;9.50;;
20095;SDS011;10207;50.942;6.900;2023-04-23T06:04:42;13.90;;;11.02;;
20095;SDS011;10207;50.942;6.900;2023-04-23T06:07:07;13.15;;;9.43;;
20095;SDS011;10207;50.942;6.900;2023-04-23T06:09:33;12.88;;;9.45;;
20095;SDS011;10207;50.942;6.900;2023-04-23T06:12:00;13.77;;;8.98;;
20095;SDS011;10207;50.942;6.900;2023-04-23T06:14:28;11.52;;;8.10;;
20095;SDS011;10207;50.942;6.900;2023-04-23T06:16:54;11.27;;;8.05;;
20095;SDS011;10207;50.942;6.900;2023-04-23T06:19:20;12.23;;;8.07;;
20095;SDS011;10207;50.942;6.900;2023-04-23T06:21:46;11.23;;;7.50;;
20095;SDS011;10207;50.942;6.900;2023-04-23T06:24:12;9.60;;;6.85;;
20095;SDS011;10207;50.942;6.900;2023-04-23T06:26:37;9.93;;;7.45;;
20095;SDS011;10207;50.942;6.900;2023-04-23T06:29:11;12.18;;;7.63;;
20095;SDS011;10207;50.942;6.900;2023-04-23T06:31:46;10.48;;;6.47;;
20095;SDS011;10207;50.942;6.900;2023-04-23T06:34:12;8.98;;;6.85;;
20095;SDS011;10207;50.942;6.900;2023-04-23T06:36:38;9.85;;;6.18;;
20095;SDS011;10207;50.942;6.900;2023-04-23T06:39:04;9.15;;;6.43;;
20095;SDS011;10207;50.942;6.900;2023-04-23T06:41:30;9.00;;;5.32;;
20095;SDS011;10207;50.942;6.900;2023-04-23T06:44:07;9.75;;;5.95;;
20095;SDS011;10207;50.942;6.900;2023-04-23T06:46:40;8.05;;;6.00;;
20095;SDS011;10207;50.942;6.900;2023-04-23T06:49:06;8.07;;;6.05;;
20095;SDS011;10207;50.942;6.900;2023-04-23T06:51:32;12.18;;;6.15;;
20095;SDS011;10207;50.942;6.900;2023-04-23T06:53:59;6.93;;;5.47;;
20095;SDS011;10207;50.942;6.900;2023-04-23T06:56:25;7.45;;;5.55;;
20095;SDS011;10207;50.942;6.900;2023-04-23T06:58:52;7.05;;;5.40;;
20095;SDS011;10207;50.942;6.900;2023-04-23T07:01:20;8.43;;;6.10;;
20095;SDS011;10207;50.942;6.900;2023-04-23T07:03:46;8.30;;;4.57;;
20095;SDS011;10207;50.942;6.900;2023-04-23T07:06:14;7.78;;;4.75;;
20095;SDS011;10207;50.942;6.900;2023-04-23T07:08:41;6.78;;;4.85;;
20095;SDS011;10207;50.942;6.900;2023-04-23T07:11:07;6.35;;;4.55;;
20095;SDS011;10207;50.942;6.900;2023-04-23T07:13:33;7.68;;;3.97;;
20095;SDS011;10207;50.942;6.900;2023-04-23T07:15:58;8.23;;;5.45;;
20095;SDS011;10207;50.942;6.900;2023-04-23T07:18:24;6.07;;;4.43;;
20095;SDS011;10207;50.942;6.900;2023-04-23T07:20:50;5.82;;;4.47;;
20095;SDS011;10207;50.942;6.900;2023-04-23T07:23:16;5.72;;;3.95;;
20095;SDS011;10207;50.942;6.900;2023-04-23T07:25:42;5.43;;;3.47;;
20095;SDS011;10207;50.942;6.900;2023-04-23T07:28:08;7.45;;;4.03;;
20095;SDS011;10207;50.942;6.900;2023-04-23T07:30:34;7.60;;;3.83;;
20095;SDS011;10207;50.942;6.900;2023-04-23T07:33:00;6.22;;;3.58;;
20095;SDS011;10207;50.942;6.900;2023-04-23T07:35:27;3.92;;;3.17;;
20095;SDS011;10207;50.942;6.900;2023-04-23T07:37:52;3.97;;;2.60;;
20095;SDS011;10207;50.942;6.900;2023-04-23T07:40:20;3.88;;;2.70;;
20095;SDS011;10207;50.942;6.900;2023-04-23T07:42:47;5.38;;;2.88;;
20095;SDS011;10207;50.942;6.900;2023-04-23T07:45:13;5.93;;;3.10;;
20095;SDS011;10207;50.942;6.900;2023-04-23T07:47:39;5.32;;;2.78;;
20095;SDS011;10207;50.942;6.900;2023-04-23T07:50:05;3.30;;;2.08;;
20095;SDS011;10207;50.942;6.900;2023-04-23T07:52:31;4.72;;;2.28;;
20095;SDS011;10207;50.942;6.900;2023-04-23T07:54:57;4.13;;;2.35;;
20095;SDS011;10207;50.942;6.900;2023-04-23T07:57:23;3.85;;;2.20;;
20095;SDS011;10207;50.942;6.900;2023-04-23T07:59:49;3.88;;;2.13;;
20095;SDS011;10207;50.942;6.900;2023-04-23T08:02:15;5.97;;;2.25;;
20095;SDS011;10207;50.942;6.900;2023-04-23T08:04:42;3.63;;;2.20;;
20095;SDS011;10207;50.942;6.900;2023-04-23T08:07:09;4.65;;;1.90;;
20095;SDS011;10207;50.942;6.900;2023-04-23T08:09:36;3.85;;;2.17;;
20095;SDS011;10207;50.942;6.900;2023-04-23T08:12:02;4.55;;;2.20;;
20095;SDS011;10207;50.942;6.900;2023-04-23T08:14:28;2.47;;;1.85;;
20095;SDS011;10207;50.942;6.900;2023-04-23T08:16:54;4.85;;;2.47;;
20095;SDS011;10207;50.942;6.900;2023-04-23T08:19:20;2.65;;;1.90;;
20095;SDS011;10207;50.942;6.900;2023-04-23T08:21:46;7.40;;;2.22;;
20095;SDS011;10207;50.942;6.900;2023-04-23T08:24:13;4.10;;;1.80;;
20095;SDS011;10207;50.942;6.900;2023-04-23T08:26:39;3.35;;;1.90;;
20095;SDS011;10207;50.942;6.900;2023-04-23T08:29:04;2.60;;;1.70;;
20095;SDS011;10207;50.942;6.900;2023-04-23T08:31:31;4.38;;;1.90;;
20095;SDS011;10207;50.942;6.900;2023-04-23T08:33:57;5.15;;;1.95;;
20095;SDS011;10207;50.942;6.900;2023-04-23T08:36:23;2.90;;;1.70;;
20095;SDS011;10207;50.942;6.900;2023-04-23T08:38:50;4.43;;;2.28;;
20095;SDS011;10207;50.942;6.900;2023-04-23T08:41:17;4.75;;;2.10;;
20095;SDS011;10207;50.942;6.900;2023-04-23T08:43:43;2.40;;;1.75;;
20095;SDS011;10207;50.942;6.900;2023-04-23T08:46:12;3.75;;;2.45;;
20095;SDS011;10207;50.942;6.900;2023-04-23T08:48:42;4.53;;;1.83;;
20095;SDS011;10207;50.942;6.900;2023-04-23T08:51:09;4.28;;;1.83;;
20095;SDS011;10207;50.942;6.900;2023-04-23T08:53:36;4.30;;;1.70;;
20095;SDS011;10207;50.942;6.900;2023-04-23T08:56:03;3.83;;;1.73;;
20095;SDS011;10207;50.942;6.900;2023-04-23T08:58:30;2.88;;;1.65;;
20095;SDS011;10207;50.942;6.900;2023-04-23T09:00:57;3.00;;;1.45;;
20095;SDS011;10207;50.942;6.900;2023-04-23T09:03:23;3.42;;;1.10;;
20095;SDS011;10207;50.942;6.900;2023-04-23T09:05:50;5.00;;;1.15;;
20095;SDS011;10207;50.942;6.900;2023-04-23T09:08:19;2.38;;;1.20;;
20095;SDS011;10207;50.942;6.900;2023-04-23T09:10:45;5.05;;;1.50;;
20095;SDS011;10207;50.942;6.900;2023-04-23T09:13:11;2.97;;;1.05;;
20095;SDS011;10207;50.942;6.900;2023-04-23T09:15:38;2.13;;;0.90;;
20095;SDS011;10207;50.942;6.900;2023-04-23T09:18:08;1.80;;;1.08;;
20095;SDS011;10207;50.942;6.900;2023-04-23T09:20:34;3.10;;;0.90;;
20095;SDS011;10207;50.942;6.900;2023-04-23T09:23:00;2.55;;;1.10;;
20095;SDS011;10207;50.942;6.900;2023-04-23T09:25:31;1.55;;;0.90;;
20095;SDS011;10207;50.942;6.900;2023-04-23T09:27:57;2.60;;;0.90;;
20095;SDS011;10207;50.942;6.900;2023-04-23T09:30:23;2.05;;;0.90;;
20095;SDS011;10207;50.942;6.900;2023-04-23T09:32:52;3.38;;;1.02;;
20095;SDS011;10207;50.942;6.900;2023-04-23T09:35:18;5.85;;;1.95;;
20095;SDS011;10207;50.942;6.900;2023-04-23T09:37:46;3.45;;;1.08;;
20095;SDS011;10207;50.942;6.900;2023-04-23T09:40:15;3.28;;;1.17;;
20095;SDS011;10207;50.942;6.900;2023-04-23T09:42:46;3.30;;;1.30;;
20095;SDS011;10207;50.942;6.900;2023-04-23T09:45:12;3.55;;;1.25;;
20095;SDS011;10207;50.942;6.900;2023-04-23T09:47:39;2.15;;;0.77;;
20095;SDS011;10207;50.942;6.900;2023-04-23T09:50:06;2.50;;;1.10;;
20095;SDS011;10207;50.942;6.900;2023-04-23T09:52:38;2.13;;;0.93;;
20095;SDS011;10207;50.942;6.900;2023-04-23T09:55:04;3.55;;;0.85;;
20095;SDS011;10207;50.942;6.900;2023-04-23T09:57:34;2.63;;;1.15;;
20095;SDS011;10207;50.942;6.900;2023-04-23T10:00:06;2.38;;;0.73;;
20095;SDS011;10207;50.942;6.900;2023-04-23T10:02:37;3.08;;;1.05;;
20095;SDS011;10207;50.942;6.900;2023-04-23T10:05:17;2.47;;;1.25;;
20095;SDS011;10207;50.942;6.900;2023-04-23T10:07:43;5.45;;;1.00;;
20095;SDS011;10207;50.942;6.900;2023-04-23T10:10:11;2.63;;;0.93;;
20095;SDS011;10207;50.942;6.900;2023-04-23T10:12:37;2.30;;;1.00;;
20095;SDS011;10207;50.942;6.900;2023-04-23T10:15:04;2.88;;;1.00;;
20095;SDS011;10207;50.942;6.900;2023-04-23T10:17:30;5.38;;;1.60;;
20095;SDS011;10207;50.942;6.900;2023-04-23T10:19:57;2.63;;;0.80;;
20095;SDS011;10207;50.942;6.900;2023-04-23T10:22:29;2.75;;;0.80;;
20095;SDS011;10207;50.942;6.900;2023-04-23T10:24:56;2.90;;;1.15;;
20095;SDS011;10207;50.942;6.900;2023-04-23T10:27:26;3.38;;;0.50;;
20095;SDS011;10207;50.942;6.900;2023-04-23T10:29:52;2.15;;;0.95;;
20095;SDS011;10207;50.942;6.900;2023-04-23T10:32:18;1.27;;;0.65;;
20095;SDS011;10207;50.942;6.900;2023-04-23T10:34:44;1.60;;;0.43;;
20095;SDS011;10207;50.942;6.900;2023-04-23T10:37:10;4.53;;;0.73;;
20095;SDS011;10207;50.942;6.900;2023-04-23T10:39:37;1.58;;;0.50;;
20095;SDS011;10207;50.942;6.900;2023-04-23T10:42:03;2.17;;;0.60;;
20095;SDS011;10207;50.942;6.900;2023-04-23T10:44:36;2.58;;;0.75;;
20095;SDS011;10207;50.942;6.900;2023-04-23T10:47:03;2.67;;;1.00;;
20095;SDS011;10207;50.942;6.900;2023-04-23T10:49:33;2.60;;;0.90;;
20095;SDS011;10207;50.942;6.900;2023-04-23T10:54:31;2.30;;;0.77;;
20095;SDS011;10207;50.942;6.900;2023-04-23T10:57:01;1.42;;;0.60;;
20095;SDS011;10207;50.942;6.900;2023-04-23T10:59:28;2.85;;;0.40;;
20095;SDS011;10207;50.942;6.900;2023-04-23T11:02:04;1.40;;;0.63;;
20095;SDS011;10207;50.942;6.900;2023-04-23T11:04:33;3.90;;;0.70;;
20095;SDS011;10207;50.942;6.900;2023-04-23T11:07:03;0.75;;;0.45;;
20095;SDS011;10207;50.942;6.900;2023-04-23T11:11:57;2.25;;;0.60;;
20095;SDS011;10207;50.942;6.900;2023-04-23T11:14:36;1.52;;;0.60;;
20095;SDS011;10207;50.942;6.900;2023-04-23T11:17:03;4.20;;;1.25;;
20095;SDS011;10207;50.942;6.900;2023-04-23T11:19:29;2.17;;;0.50;;
20095;SDS011;10207;50.942;6.900;2023-04-23T11:24:23;2.70;;;0.50;;
20095;SDS011;10207;50.942;6.900;2023-04-23T11:26:52;3.50;;;0.63;;
20095;SDS011;10207;50.942;6.900;2023-04-23T11:29:22;3.97;;;0.55;;
20095;SDS011;10207;50.942;6.900;2023-04-23T11:31:51;1.35;;;0.52;;
20095;SDS011;10207;50.942;6.900;2023-04-23T11:34:18;3.83;;;0.73;;
20095;SDS011;10207;50.942;6.900;2023-04-23T11:36:45;1.80;;;0.50;;
20095;SDS011;10207;50.942;6.900;2023-04-23T11:39:11;2.13;;;0.50;;
20095;SDS011;10207;50.942;6.900;2023-04-23T11:41:38;3.63;;;0.88;;
20095;SDS011;10207;50.942;6.900;2023-04-23T11:44:04;2.30;;;0.70;;
20095;SDS011;10207;50.942;6.900;2023-04-23T11:46:31;7.43;;;0.90;;
20095;SDS011;10207;50.942;6.900;2023-04-23T11:48:58;3.20;;;0.95;;
20095;SDS011;10207;50.942;6.900;2023-04-23T11:51:25;4.78;;;0.60;;
20095;SDS011;10207;50.942;6.900;2023-04-23T11:53:51;3.70;;;0.70;;
20095;SDS011;10207;50.942;6.900;2023-04-23T11:56:17;5.05;;;0.90;;
20095;SDS011;10207;50.942;6.900;2023-04-23T11:58:43;2.53;;;0.82;;
20095;SDS011;10207;50.942;6.900;2023-04-23T12:01:12;2.40;;;0.77;;
20095;SDS011;10207;50.942;6.900;2023-04-23T12:03:38;4.13;;;0.82;;
20095;SDS011;10207;50.942;6.900;2023-04-23T12:06:04;1.65;;;0.68;;
20095;SDS011;10207;50.942;6.900;2023-04-23T12:08:31;1.70;;;0.47;;
20095;SDS011;10207;50.942;6.900;2023-04-23T12:11:00;4.07;;;1.20;;
20095;SDS011;10207;50.942;6.900;2023-04-23T12:13:27;3.92;;;0.90;;
20095;SDS011;10207;50.942;6.900;2023-04-23T12:15:56;1.77;;;0.82;;
20095;SDS011;10207;50.942;6.900;2023-04-23T12:18:28;6.03;;;0.70;;
20095;SDS011;10207;50.942;6.900;2023-04-23T12:20:55;2.90;;;0.82;;
20095;SDS011;10207;50.942;6.900;2023-04-23T12:23:25;3.88;;;0.60;;
20095;SDS011;10207;50.942;6.900;2023-04-23T12:25:52;1.92;;;0.70;;
20095;SDS011;10207;50.942;6.900;2023-04-23T12:28:22;3.53;;;0.68;;
20095;SDS011;10207;50.942;6.900;2023-04-23T12:30:48;1.48;;;0.68;;
20095;SDS011;10207;50.942;6.900;2023-04-23T12:33:15;5.35;;;0.75;;
20095;SDS011;10207;50.942;6.900;2023-04-23T12:35:42;2.85;;;0.68;;
20095;SDS011;10207;50.942;6.900;2023-04-23T12:40:47;2.40;;;0.50;;
20095;SDS011;10207;50.942;6.900;2023-04-23T12:43:13;4.97;;;0.60;;
20095;SDS011;10207;50.942;6.900;2023-04-23T12:45:39;3.83;;;0.95;;
20095;SDS011;10207;50.942;6.900;2023-04-23T12:48:05;2.70;;;0.70;;
20095;SDS011;10207;50.942;6.900;2023-04-23T12:50:31;2.42;;;0.77;;
20095;SDS011;10207;50.942;6.900;2023-04-23T12:52:57;2.13;;;0.60;;
20095;SDS011;10207;50.942;6.900;2023-04-23T12:55:23;7.20;;;0.98;;
20095;SDS011;10207;50.942;6.900;2023-04-23T12:57:49;2.90;;;0.60;;
20095;SDS011;10207;50.942;6.900;2023-04-23T13:00:15;2.90;;;0.70;;
20095;SDS011;10207;50.942;6.900;2023-04-23T13:02:42;1.80;;;0.55;;
20095;SDS011;10207;50.942;6.900;2023-04-23T13:05:08;2.15;;;0.50;;
20095;SDS011;10207;50.942;6.900;2023-04-23T13:07:34;2.50;;;0.77;;
20095;SDS011;10207;50.942;6.900;2023-04-23T13:10:00;4.10;;;0.80;;
20095;SDS011;10207;50.942;6.900;2023-04-23T13:12:26;2.03;;;0.70;;
20095;SDS011;10207;50.942;6.900;2023-04-23T13:14:52;2.33;;;0.70;;
20095;SDS011;10207;50.942;6.900;2023-04-23T13:17:18;5.30;;;0.63;;
20095;SDS011;10207;50.942;6.900;2023-04-23T13:19:44;1.95;;;0.30;;
20095;SDS011;10207;50.942;6.900;2023-04-23T13:22:10;3.28;;;0.60;;
20095;SDS011;10207;50.942;6.900;2023-04-23T13:24:36;2.20;;;0.70;;
20095;SDS011;10207;50.942;6.900;2023-04-23T13:27:02;3.03;;;0.80;;
20095;SDS011;10207;50.942;6.900;2023-04-23T13:29:28;4.90;;;0.77;;
20095;SDS011;10207;50.942;6.900;2023-04-23T13:31:54;1.20;;;0.52;;
20095;SDS011;10207;50.942;6.900;2023-04-23T13:34:20;3.00;;;0.75;;
20095;SDS011;10207;50.942;6.900;2023-04-23T13:36:46;2.47;;;0.75;;
20095;SDS011;10207;50.942;6.900;2023-04-23T13:39:12;1.52;;;0.50;;
20095;SDS011;10207;50.942;6.900;2023-04-23T13:41:41;0.75;;;0.45;;
20095;SDS011;10207;50.942;6.900;2023-04-23T13:44:07;2.05;;;0.75;;
20095;SDS011;10207;50.942;6.900;2023-04-23T13:46:33;2.72;;;0.70;;
20095;SDS011;10207;50.942;6.900;2023-04-23T13:48:59;3.38;;;1.00;;
20095;SDS011;10207;50.942;6.900;2023-04-23T13:51:26;0.93;;;0.40;;
20095;SDS011;10207;50.942;6.900;2023-04-23T13:53:52;1.08;;;0.40;;
20095;SDS011;10207;50.942;6.900;2023-04-23T13:56:17;2.88;;;0.70;;
20095;SDS011;10207;50.942;6.900;2023-04-23T13:58:43;3.13;;;1.25;;
20095;SDS011;10207;50.942;6.900;2023-04-23T14:01:11;1.67;;;0.50;;
20095;SDS011;10207;50.942;6.900;2023-04-23T14:03:39;2.47;;;0.30;;
20095;SDS011;10207;50.942;6.900;2023-04-23T14:06:05;2.53;;;0.60;;
20095;SDS011;10207;50.942;6.900;2023-04-23T14:08:31;2.53;;;0.88;;
20095;SDS011;10207;50.942;6.900;2023-04-23T14:10:57;1.23;;;0.40;;
20095;SDS011;10207;50.942;6.900;2023-04-23T14:13:23;2.53;;;0.50;;
20095;SDS011;10207;50.942;6.900;2023-04-23T14:15:49;2.92;;;0.68;;
20095;SDS011;10207;50.942;6.900;2023-04-23T14:18:15;0.90;;;0.40;;
20095;SDS011;10207;50.942;6.900;2023-04-23T14:20:41;3.25;;;0.60;;
20095;SDS011;10207;50.942;6.900;2023-04-23T14:26:07;5.32;;;0.75;;
20095;SDS011;10207;50.942;6.900;2023-04-23T14:28:38;1.55;;;0.47;;
20095;SDS011;10207;50.942;6.900;2023-04-23T14:31:04;1.70;;;0.80;;
20095;SDS011;10207;50.942;6.900;2023-04-23T14:33:30;0.90;;;0.50;;
20095;SDS011;10207;50.942;6.900;2023-04-23T14:35:55;2.28;;;0.82;;
20095;SDS011;10207;50.942;6.900;2023-04-23T14:38:22;1.25;;;0.60;;
20095;SDS011;10207;50.942;6.900;2023-04-23T14:40:48;1.75;;;0.70;;
20095;SDS011;10207;50.942;6.900;2023-04-23T14:43:13;2.45;;;1.00;;
20095;SDS011;10207;50.942;6.900;2023-04-23T14:45:40;2.17;;;0.90;;